sensor_id;sensor_type;location;lat;lon;timestamp;P1;durP1;ratioP1;P2;durP2;ratioP2
9076;SDS011;4574;51.072;17.174;2023-08-07T00:00:37;2.37;;;2.17;;
9076;SDS011;4574;51.072;17.174;2023-08-07T00:03:06;2.87;;;2.17;;
9076;SDS011;4574;51.072;17.174;2023-08-07T00:05:35;2.50;;;2.30;;
9076;SDS011;4574;51.072;17.174;2023-08-07T00:08:04;2.93;;;2.10;;
9076;SDS011;4574;51.072;17.174;2023-08-07T00:10:33;4.73;;;2.00;;
9076;SDS011;4574;51.072;17.174;2023-08-07T00:13:02;3.00;;;2.17;;
9076;SDS011;4574;51.072;17.174;2023-08-07T00:15:30;2.57;;;2.37;;
9076;SDS011;4574;51.072;17.174;2023-08-07T00:18:00;2.77;;;2.07;;
9076;SDS011;4574;51.072;17.174;2023-08-07T00:20:28;3.33;;;2.03;;
9076;SDS011;4574;51.072;17.174;2023-08-07T00:22:57;4.07;;;1.90;;
9076;SDS011;4574;51.072;17.174;2023-08-07T00:25:27;2.33;;;2.13;;
9076;SDS011;4574;51.072;17.174;2023-08-07T00:27:55;3.90;;;2.17;;
9076;SDS011;4574;51.072;17.174;2023-08-07T00:30:23;2.67;;;2.10;;
9076;SDS011;4574;51.072;17.174;2023-08-07T00:32:52;2.30;;;2.10;;
9076;SDS011;4574;51.072;17.174;2023-08-07T00:35:21;2.57;;;2.10;;
9076;SDS011;4574;51.072;17.174;2023-08-07T00:37:50;3.20;;;2.10;;
9076;SDS011;4574;51.072;17.174;2023-08-07T00:40:18;2.60;;;2.23;;
9076;SDS011;4574;51.072;17.174;2023-08-07T00:42:48;4.13;;;2.10;;
9076;SDS011;4574;51.072;17.174;2023-08-07T00:45:17;3.90;;;2.10;;
9076;SDS011;4574;51.072;17.174;2023-08-07T00:47:45;2.07;;;1.87;;
9076;SDS011;4574;51.072;17.174;2023-08-07T00:50:14;3.13;;;2.00;;
9076;SDS011;4574;51.072;17.174;2023-08-07T00:52:43;3.00;;;2.33;;
9076;SDS011;4574;51.072;17.174;2023-08-07T00:55:11;2.23;;;2.00;;
9076;SDS011;4574;51.072;17.174;2023-08-07T00:57:40;1.80;;;1.70;;
9076;SDS011;4574;51.072;17.174;2023-08-07T01:00:10;2.47;;;1.90;;
9076;SDS011;4574;51.072;17.174;2023-08-07T01:02:41;3.37;;;1.80;;
9076;SDS011;4574;51.072;17.174;2023-08-07T01:05:10;3.33;;;1.93;;
9076;SDS011;4574;51.072;17.174;2023-08-07T01:07:39;4.50;;;2.30;;
9076;SDS011;4574;51.072;17.174;2023-08-07T01:10:07;2.80;;;2.23;;
9076;SDS011;4574;51.072;17.174;2023-08-07T01:12:39;3.53;;;1.70;;
9076;SDS011;4574;51.072;17.174;2023-08-07T01:15:18;2.93;;;1.97;;
9076;SDS011;4574;51.072;17.174;2023-08-07T01:17:50;2.10;;;1.90;;
9076;SDS011;4574;51.072;17.174;2023-08-07T01:20:21;3.87;;;2.10;;
9076;SDS011;4574;51.072;17.174;2023-08-07T01:22:52;3.23;;;2.00;;
9076;SDS011;4574;51.072;17.174;2023-08-07T01:25:21;3.67;;;2.23;;
9076;SDS011;4574;51.072;17.174;2023-08-07T01:27:51;2.80;;;2.07;;
9076;SDS011;4574;51.072;17.174;2023-08-07T01:30:25;3.40;;;2.30;;
9076;SDS011;4574;51.072;17.174;2023-08-07T01:32:59;4.30;;;2.00;;
9076;SDS011;4574;51.072;17.174;2023-08-07T01:35:36;4.97;;;2.07;;
9076;SDS011;4574;51.072;17.174;2023-08-07T01:38:10;3.67;;;2.03;;
9076;SDS011;4574;51.072;17.174;2023-08-07T01:40:40;2.77;;;2.10;;
9076;SDS011;4574;51.072;17.174;2023-08-07T01:43:10;2.33;;;2.10;;
9076;SDS011;4574;51.072;17.174;2023-08-07T01:45:39;4.40;;;2.00;;
9076;SDS011;4574;51.072;17.174;2023-08-07T01:48:07;2.40;;;2.20;;
9076;SDS011;4574;51.072;17.174;2023-08-07T01:50:36;5.30;;;2.17;;
9076;SDS011;4574;51.072;17.174;2023-08-07T01:53:05;2.23;;;2.03;;
9076;SDS011;4574;51.072;17.174;2023-08-07T01:55:35;2.07;;;1.87;;
9076;SDS011;4574;51.072;17.174;2023-08-07T01:58:04;3.77;;;2.40;;
9076;SDS011;4574;51.072;17.174;2023-08-07T02:00:32;3.20;;;2.67;;
9076;SDS011;4574;51.072;17.174;2023-08-07T02:03:01;2.20;;;1.80;;
9076;SDS011;4574;51.072;17.174;2023-08-07T02:05:30;3.17;;;2.30;;
9076;SDS011;4574;51.072;17.174;2023-08-07T02:07:58;2.97;;;1.90;;
9076;SDS011;4574;51.072;17.174;2023-08-07T02:10:27;3.13;;;2.03;;
9076;SDS011;4574;51.072;17.174;2023-08-07T02:12:58;2.10;;;1.90;;
9076;SDS011;4574;51.072;17.174;2023-08-07T02:15:26;1.93;;;1.83;;
9076;SDS011;4574;51.072;17.174;2023-08-07T02:17:55;4.87;;;1.80;;
9076;SDS011;4574;51.072;17.174;2023-08-07T02:20:24;5.70;;;1.70;;
9076;SDS011;4574;51.072;17.174;2023-08-07T02:22:52;2.67;;;2.17;;
9076;SDS011;4574;51.072;17.174;2023-08-07T02:25:21;5.70;;;1.77;;
9076;SDS011;4574;51.072;17.174;2023-08-07T02:27:49;2.13;;;1.93;;
9076;SDS011;4574;51.072;17.174;2023-08-07T02:30:19;1.60;;;1.50;;
9076;SDS011;4574;51.072;17.174;2023-08-07T02:32:48;4.03;;;1.50;;
9076;SDS011;4574;51.072;17.174;2023-08-07T02:35:16;3.00;;;1.90;;
9076;SDS011;4574;51.072;17.174;2023-08-07T02:37:45;2.20;;;2.00;;
9076;SDS011;4574;51.072;17.174;2023-08-07T02:40:13;4.83;;;2.10;;
9076;SDS011;4574;51.072;17.174;2023-08-07T02:42:45;4.43;;;1.97;;
9076;SDS011;4574;51.072;17.174;2023-08-07T02:45:14;3.87;;;1.80;;
9076;SDS011;4574;51.072;17.174;2023-08-07T02:47:44;2.77;;;1.80;;
9076;SDS011;4574;51.072;17.174;2023-08-07T02:50:13;2.30;;;2.10;;
9076;SDS011;4574;51.072;17.174;2023-08-07T02:52:41;3.50;;;2.20;;
9076;SDS011;4574;51.072;17.174;2023-08-07T02:55:11;3.27;;;2.13;;
9076;SDS011;4574;51.072;17.174;2023-08-07T02:57:40;7.90;;;3.37;;
9076;SDS011;4574;51.072;17.174;2023-08-07T03:00:08;5.83;;;2.30;;
9076;SDS011;4574;51.072;17.174;2023-08-07T03:02:38;2.80;;;1.93;;
9076;SDS011;4574;51.072;17.174;2023-08-07T03:05:08;5.07;;;2.20;;
9076;SDS011;4574;51.072;17.174;2023-08-07T03:07:37;2.43;;;2.07;;
9076;SDS011;4574;51.072;17.174;2023-08-07T03:10:06;3.30;;;2.20;;
9076;SDS011;4574;51.072;17.174;2023-08-07T03:12:35;2.77;;;2.30;;
9076;SDS011;4574;51.072;17.174;2023-08-07T03:15:04;2.43;;;2.23;;
9076;SDS011;4574;51.072;17.174;2023-08-07T03:17:34;5.50;;;2.23;;
9076;SDS011;4574;51.072;17.174;2023-08-07T03:20:03;2.60;;;2.40;;
9076;SDS011;4574;51.072;17.174;2023-08-07T03:22:34;3.90;;;2.00;;
9076;SDS011;4574;51.072;17.174;2023-08-07T03:25:03;6.03;;;2.87;;
9076;SDS011;4574;51.072;17.174;2023-08-07T03:27:32;5.17;;;2.53;;
9076;SDS011;4574;51.072;17.174;2023-08-07T03:30:00;2.47;;;2.27;;
9076;SDS011;4574;51.072;17.174;2023-08-07T03:32:29;3.17;;;2.40;;
9076;SDS011;4574;51.072;17.174;2023-08-07T03:34:59;3.07;;;2.20;;
9076;SDS011;4574;51.072;17.174;2023-08-07T03:37:31;2.40;;;2.20;;
9076;SDS011;4574;51.072;17.174;2023-08-07T03:40:01;2.70;;;2.50;;
9076;SDS011;4574;51.072;17.174;2023-08-07T03:42:29;2.93;;;2.23;;
9076;SDS011;4574;51.072;17.174;2023-08-07T03:44:58;2.83;;;2.57;;
9076;SDS011;4574;51.072;17.174;2023-08-07T03:47:26;4.90;;;2.77;;
9076;SDS011;4574;51.072;17.174;2023-08-07T03:49:55;3.00;;;2.70;;
9076;SDS011;4574;51.072;17.174;2023-08-07T03:52:23;2.70;;;2.50;;
9076;SDS011;4574;51.072;17.174;2023-08-07T03:54:51;2.93;;;2.60;;
9076;SDS011;4574;51.072;17.174;2023-08-07T03:57:21;2.83;;;2.63;;
9076;SDS011;4574;51.072;17.174;2023-08-07T03:59:50;2.80;;;2.50;;
9076;SDS011;4574;51.072;17.174;2023-08-07T04:02:19;5.53;;;2.93;;
9076;SDS011;4574;51.072;17.174;2023-08-07T04:04:47;3.27;;;2.77;;
9076;SDS011;4574;51.072;17.174;2023-08-07T04:07:16;5.30;;;2.57;;
9076;SDS011;4574;51.072;17.174;2023-08-07T04:09:44;2.83;;;2.50;;
9076;SDS011;4574;51.072;17.174;2023-08-07T04:12:13;4.23;;;2.43;;
9076;SDS011;4574;51.072;17.174;2023-08-07T04:14:42;10.30;;;3.27;;
9076;SDS011;4574;51.072;17.174;2023-08-07T04:17:11;5.77;;;3.73;;
9076;SDS011;4574;51.072;17.174;2023-08-07T04:19:39;5.60;;;3.00;;
9076;SDS011;4574;51.072;17.174;2023-08-07T04:22:08;11.77;;;3.30;;
9076;SDS011;4574;51.072;17.174;2023-08-07T04:24:36;4.33;;;3.03;;
9076;SDS011;4574;51.072;17.174;2023-08-07T04:27:05;5.67;;;2.70;;
9076;SDS011;4574;51.072;17.174;2023-08-07T04:29:35;3.37;;;3.03;;
9076;SDS011;4574;51.072;17.174;2023-08-07T04:32:05;3.97;;;2.97;;
9076;SDS011;4574;51.072;17.174;2023-08-07T04:34:34;3.80;;;3.17;;
9076;SDS011;4574;51.072;17.174;2023-08-07T04:37:03;5.10;;;3.63;;
9076;SDS011;4574;51.072;17.174;2023-08-07T04:39:34;3.70;;;3.40;;
9076;SDS011;4574;51.072;17.174;2023-08-07T04:42:03;6.80;;;3.13;;
9076;SDS011;4574;51.072;17.174;2023-08-07T04:44:33;8.40;;;2.70;;
9076;SDS011;4574;51.072;17.174;2023-08-07T04:47:01;3.80;;;2.90;;
9076;SDS011;4574;51.072;17.174;2023-08-07T04:49:31;4.57;;;3.10;;
9076;SDS011;4574;51.072;17.174;2023-08-07T04:52:00;4.10;;;2.97;;
9076;SDS011;4574;51.072;17.174;2023-08-07T04:54:42;4.43;;;3.03;;
9076;SDS011;4574;51.072;17.174;2023-08-07T04:57:10;3.40;;;3.10;;
9076;SDS011;4574;51.072;17.174;2023-08-07T04:59:39;3.00;;;2.70;;
9076;SDS011;4574;51.072;17.174;2023-08-07T05:02:07;4.13;;;2.70;;
9076;SDS011;4574;51.072;17.174;2023-08-07T05:04:37;3.10;;;2.23;;
9076;SDS011;4574;51.072;17.174;2023-08-07T05:07:05;2.23;;;2.03;;
9076;SDS011;4574;51.072;17.174;2023-08-07T05:09:34;2.20;;;1.80;;
9076;SDS011;4574;51.072;17.174;2023-08-07T05:12:03;2.40;;;2.20;;
9076;SDS011;4574;51.072;17.174;2023-08-07T05:14:33;2.40;;;1.83;;
9076;SDS011;4574;51.072;17.174;2023-08-07T05:17:01;3.40;;;1.73;;
9076;SDS011;4574;51.072;17.174;2023-08-07T05:19:30;3.10;;;2.40;;
9076;SDS011;4574;51.072;17.174;2023-08-07T05:22:00;2.73;;;2.00;;
9076;SDS011;4574;51.072;17.174;2023-08-07T05:24:28;1.97;;;1.87;;
9076;SDS011;4574;51.072;17.174;2023-08-07T05:27:02;3.60;;;2.17;;
9076;SDS011;4574;51.072;17.174;2023-08-07T05:29:30;2.13;;;1.93;;
9076;SDS011;4574;51.072;17.174;2023-08-07T05:31:58;2.67;;;1.80;;
9076;SDS011;4574;51.072;17.174;2023-08-07T05:34:27;2.73;;;1.97;;
9076;SDS011;4574;51.072;17.174;2023-08-07T05:36:56;2.60;;;1.90;;
9076;SDS011;4574;51.072;17.174;2023-08-07T05:39:26;2.47;;;2.07;;
9076;SDS011;4574;51.072;17.174;2023-08-07T05:41:54;3.50;;;2.00;;
9076;SDS011;4574;51.072;17.174;2023-08-07T05:44:24;3.43;;;2.37;;
9076;SDS011;4574;51.072;17.174;2023-08-07T05:46:53;2.97;;;2.17;;
9076;SDS011;4574;51.072;17.174;2023-08-07T05:49:21;2.40;;;2.20;;
9076;SDS011;4574;51.072;17.174;2023-08-07T05:51:52;1.97;;;1.77;;
9076;SDS011;4574;51.072;17.174;2023-08-07T05:54:21;3.67;;;2.57;;
9076;SDS011;4574;51.072;17.174;2023-08-07T05:56:51;2.40;;;2.20;;
9076;SDS011;4574;51.072;17.174;2023-08-07T05:59:19;2.13;;;1.93;;
9076;SDS011;4574;51.072;17.174;2023-08-07T06:01:48;2.60;;;2.10;;
9076;SDS011;4574;51.072;17.174;2023-08-07T06:04:18;2.97;;;2.20;;
9076;SDS011;4574;51.072;17.174;2023-08-07T06:06:47;3.03;;;2.40;;
9076;SDS011;4574;51.072;17.174;2023-08-07T06:09:15;2.60;;;2.40;;
9076;SDS011;4574;51.072;17.174;2023-08-07T06:11:44;2.60;;;2.40;;
9076;SDS011;4574;51.072;17.174;2023-08-07T06:14:14;5.20;;;2.80;;
9076;SDS011;4574;51.072;17.174;2023-08-07T06:16:43;3.33;;;2.57;;
9076;SDS011;4574;51.072;17.174;2023-08-07T06:19:12;7.30;;;2.57;;
9076;SDS011;4574;51.072;17.174;2023-08-07T06:21:55;4.50;;;2.53;;
9076;SDS011;4574;51.072;17.174;2023-08-07T06:24:24;5.67;;;2.40;;
9076;SDS011;4574;51.072;17.174;2023-08-07T06:26:53;3.77;;;2.50;;
9076;SDS011;4574;51.072;17.174;2023-08-07T06:29:23;5.40;;;2.57;;
9076;SDS011;4574;51.072;17.174;2023-08-07T06:31:51;5.13;;;2.30;;
9076;SDS011;4574;51.072;17.174;2023-08-07T06:34:20;3.67;;;2.20;;
9076;SDS011;4574;51.072;17.174;2023-08-07T06:36:49;3.30;;;2.20;;
9076;SDS011;4574;51.072;17.174;2023-08-07T06:39:18;9.23;;;2.20;;
9076;SDS011;4574;51.072;17.174;2023-08-07T06:41:46;2.73;;;2.30;;
9076;SDS011;4574;51.072;17.174;2023-08-07T06:44:15;2.17;;;1.90;;
9076;SDS011;4574;51.072;17.174;2023-08-07T06:46:45;2.90;;;2.00;;
9076;SDS011;4574;51.072;17.174;2023-08-07T06:49:13;2.17;;;2.00;;
9076;SDS011;4574;51.072;17.174;2023-08-07T06:51:42;2.83;;;2.30;;
9076;SDS011;4574;51.072;17.174;2023-08-07T06:54:10;2.93;;;1.60;;
9076;SDS011;4574;51.072;17.174;2023-08-07T06:56:39;2.87;;;2.13;;
9076;SDS011;4574;51.072;17.174;2023-08-07T06:59:08;3.03;;;2.40;;
9076;SDS011;4574;51.072;17.174;2023-08-07T07:01:37;2.40;;;2.20;;
9076;SDS011;4574;51.072;17.174;2023-08-07T07:04:07;3.50;;;2.60;;
9076;SDS011;4574;51.072;17.174;2023-08-07T07:06:36;5.73;;;2.57;;
9076;SDS011;4574;51.072;17.174;2023-08-07T07:09:05;4.83;;;2.63;;
9076;SDS011;4574;51.072;17.174;2023-08-07T07:11:33;5.10;;;2.20;;
9076;SDS011;4574;51.072;17.174;2023-08-07T07:14:02;3.27;;;2.37;;
9076;SDS011;4574;51.072;17.174;2023-08-07T07:16:31;2.63;;;2.00;;
9076;SDS011;4574;51.072;17.174;2023-08-07T07:18:59;3.07;;;2.10;;
9076;SDS011;4574;51.072;17.174;2023-08-07T07:21:29;1.77;;;1.67;;
9076;SDS011;4574;51.072;17.174;2023-08-07T07:23:58;1.90;;;1.80;;
9076;SDS011;4574;51.072;17.174;2023-08-07T07:26:26;7.07;;;2.67;;
9076;SDS011;4574;51.072;17.174;2023-08-07T07:28:55;3.33;;;1.87;;
9076;SDS011;4574;51.072;17.174;2023-08-07T07:31:24;3.10;;;1.70;;
9076;SDS011;4574;51.072;17.174;2023-08-07T07:33:52;2.03;;;1.77;;
9076;SDS011;4574;51.072;17.174;2023-08-07T07:36:21;1.90;;;1.80;;
9076;SDS011;4574;51.072;17.174;2023-08-07T07:38:51;1.90;;;1.80;;
9076;SDS011;4574;51.072;17.174;2023-08-07T07:41:19;1.73;;;1.63;;
9076;SDS011;4574;51.072;17.174;2023-08-07T07:43:49;1.70;;;1.60;;
9076;SDS011;4574;51.072;17.174;2023-08-07T07:46:20;2.33;;;1.50;;
9076;SDS011;4574;51.072;17.174;2023-08-07T07:48:48;2.60;;;1.53;;
9076;SDS011;4574;51.072;17.174;2023-08-07T07:51:17;2.00;;;1.80;;
9076;SDS011;4574;51.072;17.174;2023-08-07T07:53:45;2.17;;;1.63;;
9076;SDS011;4574;51.072;17.174;2023-08-07T07:56:36;1.63;;;1.53;;
9076;SDS011;4574;51.072;17.174;2023-08-07T07:59:06;3.67;;;1.93;;
9076;SDS011;4574;51.072;17.174;2023-08-07T08:01:35;2.03;;;1.80;;
9076;SDS011;4574;51.072;17.174;2023-08-07T08:04:03;2.10;;;1.80;;
9076;SDS011;4574;51.072;17.174;2023-08-07T08:06:33;2.83;;;1.60;;
9076;SDS011;4574;51.072;17.174;2023-08-07T08:09:01;2.67;;;1.93;;
9076;SDS011;4574;51.072;17.174;2023-08-07T08:11:31;3.27;;;1.80;;
9076;SDS011;4574;51.072;17.174;2023-08-07T08:14:01;6.00;;;1.70;;
9076;SDS011;4574;51.072;17.174;2023-08-07T08:16:29;2.40;;;1.77;;
9076;SDS011;4574;51.072;17.174;2023-08-07T08:18:58;2.13;;;1.70;;
9076;SDS011;4574;51.072;17.174;2023-08-07T08:21:27;1.80;;;1.70;;
9076;SDS011;4574;51.072;17.174;2023-08-07T08:23:57;2.97;;;2.00;;
9076;SDS011;4574;51.072;17.174;2023-08-07T08:26:25;2.67;;;1.97;;
9076;SDS011;4574;51.072;17.174;2023-08-07T08:28:54;3.60;;;2.37;;
9076;SDS011;4574;51.072;17.174;2023-08-07T08:31:24;1.77;;;1.67;;
9076;SDS011;4574;51.072;17.174;2023-08-07T08:33:53;2.70;;;1.90;;
9076;SDS011;4574;51.072;17.174;2023-08-07T08:36:21;3.30;;;1.80;;
9076;SDS011;4574;51.072;17.174;2023-08-07T08:38:50;2.67;;;2.07;;
9076;SDS011;4574;51.072;17.174;2023-08-07T08:41:18;2.43;;;1.80;;
9076;SDS011;4574;51.072;17.174;2023-08-07T08:43:47;4.17;;;1.90;;
9076;SDS011;4574;51.072;17.174;2023-08-07T08:46:20;2.97;;;2.33;;
9076;SDS011;4574;51.072;17.174;2023-08-07T08:48:52;4.50;;;2.20;;
9076;SDS011;4574;51.072;17.174;2023-08-07T08:51:25;4.60;;;2.20;;
9076;SDS011;4574;51.072;17.174;2023-08-07T08:53:54;4.20;;;2.10;;
9076;SDS011;4574;51.072;17.174;2023-08-07T08:56:24;3.30;;;2.57;;
9076;SDS011;4574;51.072;17.174;2023-08-07T08:58:52;2.50;;;2.30;;
9076;SDS011;4574;51.072;17.174;2023-08-07T09:01:21;3.60;;;2.20;;
9076;SDS011;4574;51.072;17.174;2023-08-07T09:03:54;2.60;;;2.40;;
9076;SDS011;4574;51.072;17.174;2023-08-07T09:06:24;2.80;;;2.03;;
9076;SDS011;4574;51.072;17.174;2023-08-07T09:08:56;4.03;;;2.50;;
9076;SDS011;4574;51.072;17.174;2023-08-07T09:11:26;4.97;;;2.40;;
9076;SDS011;4574;51.072;17.174;2023-08-07T09:13:57;2.67;;;2.47;;
9076;SDS011;4574;51.072;17.174;2023-08-07T09:16:27;6.43;;;2.47;;
9076;SDS011;4574;51.072;17.174;2023-08-07T09:18:59;4.60;;;2.30;;
9076;SDS011;4574;51.072;17.174;2023-08-07T09:21:31;3.90;;;2.43;;
9076;SDS011;4574;51.072;17.174;2023-08-07T09:24:00;2.73;;;2.30;;
9076;SDS011;4574;51.072;17.174;2023-08-07T09:26:31;4.03;;;2.43;;
9076;SDS011;4574;51.072;17.174;2023-08-07T09:29:00;4.73;;;2.43;;
9076;SDS011;4574;51.072;17.174;2023-08-07T09:31:30;3.03;;;2.27;;
9076;SDS011;4574;51.072;17.174;2023-08-07T09:34:02;3.80;;;2.50;;
9076;SDS011;4574;51.072;17.174;2023-08-07T09:36:33;5.43;;;2.00;;
9076;SDS011;4574;51.072;17.174;2023-08-07T09:39:03;3.90;;;2.70;;
9076;SDS011;4574;51.072;17.174;2023-08-07T09:41:31;2.23;;;2.03;;
9076;SDS011;4574;51.072;17.174;2023-08-07T09:44:05;2.10;;;1.90;;
9076;SDS011;4574;51.072;17.174;2023-08-07T09:46:40;2.57;;;2.37;;
9076;SDS011;4574;51.072;17.174;2023-08-07T09:49:11;2.57;;;2.10;;
9076;SDS011;4574;51.072;17.174;2023-08-07T09:51:42;2.67;;;2.40;;
9076;SDS011;4574;51.072;17.174;2023-08-07T09:54:11;3.27;;;2.33;;
9076;SDS011;4574;51.072;17.174;2023-08-07T09:56:40;3.60;;;2.10;;
9076;SDS011;4574;51.072;17.174;2023-08-07T09:59:09;2.97;;;1.93;;
9076;SDS011;4574;51.072;17.174;2023-08-07T10:01:38;1.87;;;1.70;;
9076;SDS011;4574;51.072;17.174;2023-08-07T10:04:10;3.93;;;2.00;;
9076;SDS011;4574;51.072;17.174;2023-08-07T10:06:43;3.17;;;1.70;;
9076;SDS011;4574;51.072;17.174;2023-08-07T10:09:12;6.00;;;1.60;;
9076;SDS011;4574;51.072;17.174;2023-08-07T10:11:41;2.87;;;2.10;;
9076;SDS011;4574;51.072;17.174;2023-08-07T10:14:09;1.73;;;1.60;;
9076;SDS011;4574;51.072;17.174;2023-08-07T10:16:40;4.33;;;1.67;;
9076;SDS011;4574;51.072;17.174;2023-08-07T10:19:10;4.03;;;1.97;;
9076;SDS011;4574;51.072;17.174;2023-08-07T10:21:39;2.37;;;1.70;;
9076;SDS011;4574;51.072;17.174;2023-08-07T10:24:09;3.00;;;1.27;;
9076;SDS011;4574;51.072;17.174;2023-08-07T10:26:39;1.60;;;1.50;;
9076;SDS011;4574;51.072;17.174;2023-08-07T10:29:13;4.97;;;1.50;;
9076;SDS011;4574;51.072;17.174;2023-08-07T10:31:45;3.37;;;1.67;;
9076;SDS011;4574;51.072;17.174;2023-08-07T10:34:18;2.40;;;1.77;;
9076;SDS011;4574;51.072;17.174;2023-08-07T10:36:46;3.93;;;1.50;;
9076;SDS011;4574;51.072;17.174;2023-08-07T10:39:15;2.67;;;1.87;;
9076;SDS011;4574;51.072;17.174;2023-08-07T10:41:45;1.60;;;1.50;;
9076;SDS011;4574;51.072;17.174;2023-08-07T10:44:17;1.40;;;1.30;;
9076;SDS011;4574;51.072;17.174;2023-08-07T10:46:47;2.07;;;1.60;;
9076;SDS011;4574;51.072;17.174;2023-08-07T10:49:34;1.40;;;1.30;;
9076;SDS011;4574;51.072;17.174;2023-08-07T10:52:13;1.83;;;1.30;;
9076;SDS011;4574;51.072;17.174;2023-08-07T10:54:44;2.73;;;1.50;;
9076;SDS011;4574;51.072;17.174;2023-08-07T10:57:15;2.77;;;1.50;;
9076;SDS011;4574;51.072;17.174;2023-08-07T10:59:49;2.50;;;1.30;;
9076;SDS011;4574;51.072;17.174;2023-08-07T11:02:23;1.80;;;1.33;;
9076;SDS011;4574;51.072;17.174;2023-08-07T11:04:54;3.50;;;1.40;;
9076;SDS011;4574;51.072;17.174;2023-08-07T11:07:24;3.70;;;1.50;;
9076;SDS011;4574;51.072;17.174;2023-08-07T11:09:54;2.53;;;1.50;;
9076;SDS011;4574;51.072;17.174;2023-08-07T11:12:24;1.30;;;1.20;;
9076;SDS011;4574;51.072;17.174;2023-08-07T11:14:53;1.80;;;1.57;;
9076;SDS011;4574;51.072;17.174;2023-08-07T11:17:24;1.70;;;1.50;;
9076;SDS011;4574;51.072;17.174;2023-08-07T11:19:55;1.40;;;1.30;;
9076;SDS011;4574;51.072;17.174;2023-08-07T11:22:24;3.17;;;1.43;;
9076;SDS011;4574;51.072;17.174;2023-08-07T11:24:52;1.47;;;1.37;;
9076;SDS011;4574;51.072;17.174;2023-08-07T11:27:21;4.20;;;2.20;;
9076;SDS011;4574;51.072;17.174;2023-08-07T11:29:50;1.30;;;1.20;;
9076;SDS011;4574;51.072;17.174;2023-08-07T11:32:20;1.67;;;1.57;;
9076;SDS011;4574;51.072;17.174;2023-08-07T11:34:49;1.80;;;1.60;;
9076;SDS011;4574;51.072;17.174;2023-08-07T11:37:19;2.10;;;1.30;;
9076;SDS011;4574;51.072;17.174;2023-08-07T11:39:48;1.33;;;1.23;;
9076;SDS011;4574;51.072;17.174;2023-08-07T11:42:16;2.33;;;1.50;;
9076;SDS011;4574;51.072;17.174;2023-08-07T11:44:45;1.77;;;1.67;;
9076;SDS011;4574;51.072;17.174;2023-08-07T11:47:14;1.97;;;1.83;;
9076;SDS011;4574;51.072;17.174;2023-08-07T11:49:44;1.80;;;1.70;;
9076;SDS011;4574;51.072;17.174;2023-08-07T11:52:14;3.20;;;1.70;;
9076;SDS011;4574;51.072;17.174;2023-08-07T11:54:47;2.70;;;1.60;;
9076;SDS011;4574;51.072;17.174;2023-08-07T11:57:17;2.57;;;1.83;;
9076;SDS011;4574;51.072;17.174;2023-08-07T11:59:51;1.73;;;1.40;;
9076;SDS011;4574;51.072;17.174;2023-08-07T12:02:23;3.00;;;1.77;;
9076;SDS011;4574;51.072;17.174;2023-08-07T12:04:57;2.00;;;1.73;;
9076;SDS011;4574;51.072;17.174;2023-08-07T12:07:27;1.40;;;1.30;;
9076;SDS011;4574;51.072;17.174;2023-08-07T12:10:00;2.60;;;1.50;;
9076;SDS011;4574;51.072;17.174;2023-08-07T12:12:32;4.07;;;1.50;;
9076;SDS011;4574;51.072;17.174;2023-08-07T12:15:01;2.00;;;1.47;;
9076;SDS011;4574;51.072;17.174;2023-08-07T12:17:31;2.10;;;1.60;;
9076;SDS011;4574;51.072;17.174;2023-08-07T12:20:00;1.67;;;1.57;;
9076;SDS011;4574;51.072;17.174;2023-08-07T12:22:31;1.40;;;1.30;;
9076;SDS011;4574;51.072;17.174;2023-08-07T12:25:01;3.23;;;1.40;;
9076;SDS011;4574;51.072;17.174;2023-08-07T12:27:29;2.10;;;1.40;;
9076;SDS011;4574;51.072;17.174;2023-08-07T12:29:58;2.37;;;1.60;;
9076;SDS011;4574;51.072;17.174;2023-08-07T12:32:26;1.07;;;1.07;;
9076;SDS011;4574;51.072;17.174;2023-08-07T12:34:55;1.10;;;1.00;;
9076;SDS011;4574;51.072;17.174;2023-08-07T12:37:26;1.07;;;1.07;;
9076;SDS011;4574;51.072;17.174;2023-08-07T12:39:55;1.70;;;1.40;;
9076;SDS011;4574;51.072;17.174;2023-08-07T12:42:45;2.00;;;1.47;;
9076;SDS011;4574;51.072;17.174;2023-08-07T12:45:15;1.43;;;1.33;;
9076;SDS011;4574;51.072;17.174;2023-08-07T12:48:05;1.27;;;1.17;;
9076;SDS011;4574;51.072;17.174;2023-08-07T12:50:34;2.03;;;1.20;;
9076;SDS011;4574;51.072;17.174;2023-08-07T12:53:03;1.20;;;1.10;;
9076;SDS011;4574;51.072;17.174;2023-08-07T12:55:31;1.70;;;1.50;;
9076;SDS011;4574;51.072;17.174;2023-08-07T12:58:01;1.00;;;1.00;;
9076;SDS011;4574;51.072;17.174;2023-08-07T13:00:30;1.03;;;1.00;;
9076;SDS011;4574;51.072;17.174;2023-08-07T13:02:58;2.40;;;1.10;;
9076;SDS011;4574;51.072;17.174;2023-08-07T13:05:27;1.30;;;1.23;;
9076;SDS011;4574;51.072;17.174;2023-08-07T13:07:57;1.60;;;1.17;;
9076;SDS011;4574;51.072;17.174;2023-08-07T13:10:26;2.10;;;1.20;;
9076;SDS011;4574;51.072;17.174;2023-08-07T13:12:57;2.77;;;1.40;;
9076;SDS011;4574;51.072;17.174;2023-08-07T13:15:29;2.43;;;1.40;;
9076;SDS011;4574;51.072;17.174;2023-08-07T13:17:58;2.37;;;1.30;;
9076;SDS011;4574;51.072;17.174;2023-08-07T13:20:27;1.57;;;1.20;;
9076;SDS011;4574;51.072;17.174;2023-08-07T13:23:00;1.43;;;1.33;;
9076;SDS011;4574;51.072;17.174;2023-08-07T13:25:29;3.07;;;1.43;;
9076;SDS011;4574;51.072;17.174;2023-08-07T13:27:57;1.60;;;1.50;;
9076;SDS011;4574;51.072;17.174;2023-08-07T13:30:25;2.30;;;1.60;;
9076;SDS011;4574;51.072;17.174;2023-08-07T13:33:03;1.33;;;1.23;;
9076;SDS011;4574;51.072;17.174;2023-08-07T13:35:32;1.90;;;1.27;;
9076;SDS011;4574;51.072;17.174;2023-08-07T13:38:00;1.63;;;1.40;;
9076;SDS011;4574;51.072;17.174;2023-08-07T13:40:32;1.30;;;1.20;;
9076;SDS011;4574;51.072;17.174;2023-08-07T13:43:00;1.60;;;1.23;;
9076;SDS011;4574;51.072;17.174;2023-08-07T13:45:34;1.43;;;1.30;;
9076;SDS011;4574;51.072;17.174;2023-08-07T13:48:04;1.37;;;1.20;;
9076;SDS011;4574;51.072;17.174;2023-08-07T13:50:36;1.67;;;1.10;;
9076;SDS011;4574;51.072;17.174;2023-08-07T13:53:06;1.30;;;1.20;;
9076;SDS011;4574;51.072;17.174;2023-08-07T13:55:41;1.83;;;1.30;;
9076;SDS011;4574;51.072;17.174;2023-08-07T13:58:10;1.10;;;1.10;;
9076;SDS011;4574;51.072;17.174;2023-08-07T14:00:40;2.13;;;1.47;;
9076;SDS011;4574;51.072;17.174;2023-08-07T14:03:10;2.40;;;1.20;;
9076;SDS011;4574;51.072;17.174;2023-08-07T14:05:40;1.50;;;1.40;;
9076;SDS011;4574;51.072;17.174;2023-08-07T14:08:08;2.67;;;1.30;;
9076;SDS011;4574;51.072;17.174;2023-08-07T14:10:37;1.60;;;1.50;;
9076;SDS011;4574;51.072;17.174;2023-08-07T14:13:08;3.73;;;1.73;;
9076;SDS011;4574;51.072;17.174;2023-08-07T14:15:38;2.83;;;1.33;;
9076;SDS011;4574;51.072;17.174;2023-08-07T14:18:07;1.53;;;1.20;;
9076;SDS011;4574;51.072;17.174;2023-08-07T14:20:38;2.03;;;1.30;;
9076;SDS011;4574;51.072;17.174;2023-08-07T14:23:26;2.57;;;1.57;;
9076;SDS011;4574;51.072;17.174;2023-08-07T14:25:57;2.40;;;1.20;;
9076;SDS011;4574;51.072;17.174;2023-08-07T14:28:26;1.20;;;1.13;;
9076;SDS011;4574;51.072;17.174;2023-08-07T14:30:56;1.63;;;1.10;;
9076;SDS011;4574;51.072;17.174;2023-08-07T14:33:27;1.53;;;1.00;;
9076;SDS011;4574;51.072;17.174;2023-08-07T14:36:00;0.80;;;0.80;;
9076;SDS011;4574;51.072;17.174;2023-08-07T14:38:29;1.63;;;0.87;;
9076;SDS011;4574;51.072;17.174;2023-08-07T14:40:58;0.90;;;0.90;;
9076;SDS011;4574;51.072;17.174;2023-08-07T14:43:29;1.10;;;0.90;;
9076;SDS011;4574;51.072;17.174;2023-08-07T14:45:58;1.60;;;1.13;;
9076;SDS011;4574;51.072;17.174;2023-08-07T14:48:27;2.10;;;0.90;;
9076;SDS011;4574;51.072;17.174;2023-08-07T14:50:56;0.90;;;0.90;;
9076;SDS011;4574;51.072;17.174;2023-08-07T14:53:25;1.00;;;0.90;;
9076;SDS011;4574;51.072;17.174;2023-08-07T14:55:54;1.07;;;0.80;;
9076;SDS011;4574;51.072;17.174;2023-08-07T14:58:23;1.23;;;1.13;;
9076;SDS011;4574;51.072;17.174;2023-08-07T15:00:53;1.23;;;0.70;;
9076;SDS011;4574;51.072;17.174;2023-08-07T15:03:22;0.80;;;0.80;;
9076;SDS011;4574;51.072;17.174;2023-08-07T15:05:50;2.00;;;0.80;;
9076;SDS011;4574;51.072;17.174;2023-08-07T15:08:19;1.23;;;0.90;;
9076;SDS011;4574;51.072;17.174;2023-08-07T15:10:50;4.63;;;1.10;;
9076;SDS011;4574;51.072;17.174;2023-08-07T15:13:20;4.53;;;1.17;;
9076;SDS011;4574;51.072;17.174;2023-08-07T15:15:48;0.80;;;0.80;;